N2528E MMTP-MRLB
Flight info
| Callsign | N2528E |
|---|---|
| Flight time | 3h 19m |
| Altitude | 11000 |
| Route | TAP A317 SJO A317 CAT A317 MGA G439 LIB |
| Aircraft | M20P/L-VGD/C |
Departure
| Time | 2026-04-28 22:12 |
|---|---|
| Airport | Tapachula International Airport (MMTP) |
Arrival
| Time | 2026-04-29 01:32 |
|---|---|
| Airport | Daniel Oduber Quirós International Airport (MRLB) |
| Time | Latitude | Longitude | Altitude | Speed | Heading |
|---|---|---|---|---|---|
| 2026-04-28 22:03 | 14.79199 | -92.36821 | 87 ft | 0 kts | 236° |
| 2026-04-28 22:08 | 14.79206 | -92.36842 | 89 ft | 7 kts | 299° |
| 2026-04-28 22:08 | 14.79197 | -92.36900 | 86 ft | 10 kts | 303° |
| 2026-04-28 22:08 | 14.79281 | -92.36922 | 88 ft | 16 kts | 17° |
| 2026-04-28 22:08 | 14.79393 | -92.36869 | 88 ft | 19 kts | 23° |
| 2026-04-28 22:09 | 14.79475 | -92.36821 | 89 ft | 21 kts | 34° |
| 2026-04-28 22:09 | 14.79603 | -92.36738 | 91 ft | 23 kts | 60° |
| 2026-04-28 22:09 | 14.79688 | -92.36597 | 94 ft | 23 kts | 55° |
| 2026-04-28 22:09 | 14.79782 | -92.36454 | 96 ft | 25 kts | 54° |
| 2026-04-28 22:10 | 14.79872 | -92.36300 | 99 ft | 21 kts | 86° |
| 2026-04-28 22:10 | 14.79917 | -92.36241 | 100 ft | 14 kts | 306° |
| 2026-04-28 22:10 | 14.79905 | -92.36291 | 99 ft | 0 kts | 239° |
| 2026-04-28 22:11 | 14.79839 | -92.36396 | 98 ft | 38 kts | 236° |
| 2026-04-28 22:11 | 14.79625 | -92.36723 | 94 ft | 70 kts | 236° |
| 2026-04-28 22:11 | 14.79330 | -92.37175 | 203 ft | 81 kts | 234° |
| 2026-04-28 22:11 | 14.78982 | -92.37713 | 285 ft | 96 kts | 234° |
| 2026-04-28 22:12 | 14.78599 | -92.38303 | 462 ft | 104 kts | 235° |
| 2026-04-28 22:12 | 14.78036 | -92.39164 | 712 ft | 110 kts | 233° |
| 2026-04-28 22:12 | 14.77737 | -92.39609 | 852 ft | 114 kts | 236° |
| 2026-04-28 22:12 | 14.77295 | -92.40294 | 1131 ft | 112 kts | 234° |
| 2026-04-28 22:13 | 14.76879 | -92.40948 | 1441 ft | 107 kts | 236° |
| 2026-04-28 22:13 | 14.76481 | -92.41570 | 1736 ft | 101 kts | 235° |
| 2026-04-28 22:13 | 14.76094 | -92.42176 | 1967 ft | 102 kts | 236° |
| 2026-04-28 22:13 | 14.75706 | -92.42791 | 2204 ft | 104 kts | 236° |
| 2026-04-28 22:14 | 14.75302 | -92.43429 | 2445 ft | 107 kts | 234° |
| 2026-04-28 22:14 | 14.74897 | -92.44075 | 2688 ft | 108 kts | 234° |
| 2026-04-28 22:14 | 14.74481 | -92.44732 | 2929 ft | 108 kts | 234° |
| 2026-04-28 22:14 | 14.74072 | -92.45390 | 3160 ft | 109 kts | 234° |
| 2026-04-28 22:15 | 14.73653 | -92.46045 | 3400 ft | 107 kts | 235° |
| 2026-04-28 22:15 | 14.73248 | -92.46683 | 3630 ft | 106 kts | 235° |
| 2026-04-28 22:15 | 14.72851 | -92.47310 | 3859 ft | 104 kts | 235° |
| 2026-04-28 22:15 | 14.72367 | -92.47894 | 4029 ft | 109 kts | 207° |
| 2026-04-28 22:16 | 14.71624 | -92.47963 | 4208 ft | 112 kts | 162° |
| 2026-04-28 22:16 | 14.71041 | -92.47451 | 4382 ft | 115 kts | 115° |
| 2026-04-28 22:16 | 14.71015 | -92.46634 | 4564 ft | 118 kts | 66° |
| 2026-04-28 22:16 | 14.71529 | -92.45982 | 4741 ft | 120 kts | 45° |
| 2026-04-28 22:17 | 14.72102 | -92.45353 | 4912 ft | 122 kts | 46° |
| 2026-04-28 22:17 | 14.72695 | -92.44702 | 5087 ft | 125 kts | 46° |
| 2026-04-28 22:17 | 14.73290 | -92.44052 | 5259 ft | 126 kts | 46° |
| 2026-04-28 22:17 | 14.73901 | -92.43385 | 5429 ft | 128 kts | 45° |
| 2026-04-28 22:18 | 14.74522 | -92.42707 | 5603 ft | 130 kts | 45° |
| 2026-04-28 22:18 | 14.75141 | -92.42032 | 5771 ft | 131 kts | 45° |
| 2026-04-28 22:18 | 14.75770 | -92.41343 | 5945 ft | 132 kts | 45° |
| 2026-04-28 22:18 | 14.76400 | -92.40655 | 6116 ft | 133 kts | 45° |
| 2026-04-28 22:19 | 14.77041 | -92.39956 | 6288 ft | 133 kts | 45° |
| 2026-04-28 22:19 | 14.77678 | -92.39261 | 6448 ft | 133 kts | 45° |
| 2026-04-28 22:19 | 14.78311 | -92.38568 | 6612 ft | 132 kts | 45° |
| 2026-04-28 22:19 | 14.78883 | -92.37837 | 6764 ft | 132 kts | 64° |
| 2026-04-28 22:20 | 14.78907 | -92.36908 | 6917 ft | 136 kts | 109° |
| 2026-04-28 22:20 | 14.78423 | -92.36073 | 7085 ft | 136 kts | 120° |
| 2026-04-28 22:20 | 14.77926 | -92.35229 | 7252 ft | 136 kts | 116° |
| 2026-04-28 22:20 | 14.77453 | -92.34394 | 7413 ft | 135 kts | 117° |
| 2026-04-28 22:21 | 14.76987 | -92.33567 | 7582 ft | 134 kts | 116° |
| 2026-04-28 22:21 | 14.76522 | -92.32737 | 7740 ft | 132 kts | 115° |
| 2026-04-28 22:21 | 14.76062 | -92.31914 | 7906 ft | 131 kts | 115° |
| 2026-04-28 22:21 | 14.75611 | -92.31106 | 8071 ft | 130 kts | 115° |
| 2026-04-28 22:22 | 14.75166 | -92.30310 | 8235 ft | 128 kts | 115° |
| 2026-04-28 22:22 | 14.74720 | -92.29511 | 8401 ft | 127 kts | 115° |
| 2026-04-28 22:22 | 14.74279 | -92.28724 | 8570 ft | 126 kts | 115° |
| 2026-04-28 22:22 | 14.73848 | -92.27950 | 8733 ft | 124 kts | 115° |
| 2026-04-28 22:23 | 14.73421 | -92.27186 | 8907 ft | 122 kts | 115° |
| 2026-04-28 22:23 | 14.72996 | -92.26426 | 9077 ft | 121 kts | 115° |
| 2026-04-28 22:23 | 14.72579 | -92.25679 | 9247 ft | 119 kts | 114° |
| 2026-04-28 22:23 | 14.72164 | -92.24937 | 9368 ft | 121 kts | 115° |
| 2026-04-28 22:24 | 14.71741 | -92.24181 | 9496 ft | 123 kts | 115° |
| 2026-04-28 22:24 | 14.71312 | -92.23412 | 9626 ft | 124 kts | 114° |
| 2026-04-28 22:24 | 14.70878 | -92.22636 | 9755 ft | 124 kts | 114° |
| 2026-04-28 22:24 | 14.70447 | -92.21868 | 9878 ft | 125 kts | 114° |
| 2026-04-28 22:25 | 14.70010 | -92.21086 | 9997 ft | 125 kts | 114° |
| 2026-04-28 22:25 | 14.69572 | -92.20304 | 10109 ft | 125 kts | 114° |
| 2026-04-28 22:25 | 14.69138 | -92.19529 | 10224 ft | 125 kts | 114° |
| 2026-04-28 22:25 | 14.68701 | -92.18746 | 10342 ft | 125 kts | 114° |
| 2026-04-28 22:26 | 14.68264 | -92.17965 | 10458 ft | 125 kts | 113° |
| 2026-04-28 22:26 | 14.67830 | -92.17191 | 10575 ft | 125 kts | 113° |
| 2026-04-28 22:26 | 14.67399 | -92.16420 | 10696 ft | 124 kts | 113° |
| 2026-04-28 22:26 | 14.66963 | -92.15642 | 10804 ft | 124 kts | 113° |
| 2026-04-28 22:27 | 14.66531 | -92.14869 | 10921 ft | 124 kts | 113° |
| 2026-04-28 22:27 | 14.66105 | -92.14106 | 11018 ft | 125 kts | 112° |
| 2026-04-28 22:27 | 14.65655 | -92.13289 | 11013 ft | 135 kts | 113° |
| 2026-04-28 22:27 | 14.65180 | -92.12430 | 11016 ft | 142 kts | 114° |
| 2026-04-28 22:28 | 14.64674 | -92.11516 | 11021 ft | 149 kts | 114° |
| 2026-04-28 22:28 | 14.64151 | -92.10574 | 11012 ft | 154 kts | 114° |
| 2026-04-28 22:28 | 14.63609 | -92.09594 | 11009 ft | 158 kts | 114° |
| 2026-04-28 22:28 | 14.63063 | -92.08611 | 11012 ft | 160 kts | 114° |
| 2026-04-28 22:29 | 14.62502 | -92.07598 | 11010 ft | 162 kts | 114° |
| 2026-04-28 22:29 | 14.61942 | -92.06586 | 11009 ft | 164 kts | 114° |
| 2026-04-28 22:29 | 14.61380 | -92.05573 | 11013 ft | 164 kts | 114° |
| 2026-04-28 22:29 | 14.60810 | -92.04544 | 11011 ft | 165 kts | 114° |
| 2026-04-28 22:30 | 14.60238 | -92.03511 | 11007 ft | 166 kts | 114° |
| 2026-04-28 22:30 | 14.59664 | -92.02476 | 11005 ft | 166 kts | 114° |
| 2026-04-28 22:30 | 14.59089 | -92.01439 | 10999 ft | 167 kts | 114° |
| 2026-04-28 22:30 | 14.58514 | -92.00401 | 10994 ft | 167 kts | 114° |
| 2026-04-28 22:31 | 14.57939 | -91.99362 | 10994 ft | 167 kts | 114° |
| 2026-04-28 22:31 | 14.57359 | -91.98318 | 10988 ft | 167 kts | 114° |
| 2026-04-28 22:31 | 14.56782 | -91.97276 | 10986 ft | 167 kts | 114° |
| 2026-04-28 22:31 | 14.56205 | -91.96235 | 10984 ft | 167 kts | 114° |
| 2026-04-28 22:32 | 14.55626 | -91.95192 | 10983 ft | 167 kts | 114° |
| 2026-04-28 22:32 | 14.55049 | -91.94151 | 10980 ft | 167 kts | 114° |
| 2026-04-28 22:32 | 14.54470 | -91.93108 | 10977 ft | 167 kts | 114° |
| 2026-04-28 22:32 | 14.53899 | -91.92078 | 10979 ft | 167 kts | 114° |
| 2026-04-28 22:33 | 14.53321 | -91.91036 | 10978 ft | 167 kts | 114° |
| 2026-04-28 22:33 | 14.52742 | -91.89993 | 10975 ft | 167 kts | 114° |
| 2026-04-28 22:33 | 14.52165 | -91.88953 | 10973 ft | 167 kts | 114° |
| 2026-04-28 22:33 | 14.51586 | -91.87911 | 10975 ft | 167 kts | 114° |
| 2026-04-28 22:34 | 14.51008 | -91.86870 | 10974 ft | 167 kts | 114° |
| 2026-04-28 22:34 | 14.50429 | -91.85827 | 10971 ft | 167 kts | 114° |
| 2026-04-28 22:34 | 14.49850 | -91.84784 | 10969 ft | 167 kts | 114° |
| 2026-04-28 22:34 | 14.49271 | -91.83742 | 10970 ft | 168 kts | 114° |
| 2026-04-28 22:35 | 14.48692 | -91.82699 | 10972 ft | 168 kts | 114° |
| 2026-04-28 22:35 | 14.48113 | -91.81657 | 10972 ft | 167 kts | 114° |
| 2026-04-28 22:35 | 14.47534 | -91.80615 | 10971 ft | 167 kts | 114° |
| 2026-04-28 22:35 | 14.46955 | -91.79572 | 10971 ft | 167 kts | 114° |
| 2026-04-28 22:36 | 14.46377 | -91.78532 | 10970 ft | 167 kts | 114° |
| 2026-04-28 22:36 | 14.45806 | -91.77507 | 10973 ft | 167 kts | 114° |
| 2026-04-28 22:36 | 14.45227 | -91.76465 | 10969 ft | 167 kts | 114° |
| 2026-04-28 22:36 | 14.44650 | -91.75425 | 10969 ft | 167 kts | 114° |
| 2026-04-28 22:37 | 14.44073 | -91.74387 | 10971 ft | 167 kts | 114° |
| 2026-04-28 22:37 | 14.43494 | -91.73348 | 10972 ft | 167 kts | 114° |
| 2026-04-28 22:37 | 14.42917 | -91.72311 | 10972 ft | 167 kts | 114° |
| 2026-04-28 22:37 | 14.42340 | -91.71273 | 10972 ft | 167 kts | 114° |
| 2026-04-28 22:38 | 14.41763 | -91.70235 | 10972 ft | 167 kts | 114° |
| 2026-04-28 22:38 | 14.41186 | -91.69198 | 10970 ft | 167 kts | 114° |
| 2026-04-28 22:38 | 14.40609 | -91.68161 | 10972 ft | 167 kts | 114° |
| 2026-04-28 22:38 | 14.40030 | -91.67121 | 10970 ft | 167 kts | 114° |
| 2026-04-28 22:39 | 14.39452 | -91.66082 | 10972 ft | 167 kts | 114° |
| 2026-04-28 22:39 | 14.38874 | -91.65044 | 10970 ft | 167 kts | 114° |
| 2026-04-28 22:39 | 14.38296 | -91.64005 | 10971 ft | 167 kts | 114° |
| 2026-04-28 22:39 | 14.37716 | -91.62965 | 10971 ft | 167 kts | 114° |
| 2026-04-28 22:40 | 14.37137 | -91.61926 | 10971 ft | 166 kts | 114° |
| 2026-04-28 22:40 | 14.36562 | -91.60892 | 10972 ft | 166 kts | 114° |
| 2026-04-28 22:40 | 14.35992 | -91.59870 | 10971 ft | 166 kts | 114° |
| 2026-04-28 22:40 | 14.35415 | -91.58834 | 10973 ft | 166 kts | 113° |
| 2026-04-28 22:41 | 14.34839 | -91.57800 | 10972 ft | 166 kts | 113° |
| 2026-04-28 22:41 | 14.34264 | -91.56769 | 10974 ft | 166 kts | 113° |
| 2026-04-28 22:41 | 14.33690 | -91.55739 | 10974 ft | 166 kts | 113° |
| 2026-04-28 22:41 | 14.33115 | -91.54707 | 10974 ft | 166 kts | 113° |
| 2026-04-28 22:42 | 14.32542 | -91.53678 | 10979 ft | 166 kts | 113° |
| 2026-04-28 22:42 | 14.31966 | -91.52645 | 10979 ft | 166 kts | 113° |
| 2026-04-28 22:42 | 14.31392 | -91.51616 | 10979 ft | 165 kts | 113° |
| 2026-04-28 22:42 | 14.30818 | -91.50587 | 10979 ft | 166 kts | 113° |
| 2026-04-28 22:43 | 14.30244 | -91.49557 | 10984 ft | 166 kts | 113° |
| 2026-04-28 22:43 | 14.29670 | -91.48529 | 10985 ft | 165 kts | 113° |
| 2026-04-28 22:43 | 14.29097 | -91.47502 | 10988 ft | 166 kts | 113° |
| 2026-04-28 22:43 | 14.28523 | -91.46472 | 10992 ft | 166 kts | 113° |
| 2026-04-28 22:44 | 14.27947 | -91.45440 | 10993 ft | 166 kts | 113° |
| 2026-04-28 22:44 | 14.27369 | -91.44406 | 10995 ft | 166 kts | 113° |
| 2026-04-28 22:44 | 14.26800 | -91.43385 | 11001 ft | 166 kts | 113° |
| 2026-04-28 22:44 | 14.26222 | -91.42349 | 10999 ft | 167 kts | 113° |
| 2026-04-28 22:45 | 14.25643 | -91.41314 | 11000 ft | 167 kts | 113° |
| 2026-04-28 22:45 | 14.25065 | -91.40279 | 11003 ft | 167 kts | 113° |
| 2026-04-28 22:45 | 14.24486 | -91.39241 | 11002 ft | 167 kts | 113° |
| 2026-04-28 22:45 | 14.23907 | -91.38204 | 11006 ft | 167 kts | 113° |
| 2026-04-28 22:46 | 14.23327 | -91.37167 | 11006 ft | 167 kts | 113° |
| 2026-04-28 22:46 | 14.22746 | -91.36127 | 11006 ft | 167 kts | 113° |
| 2026-04-28 22:46 | 14.22165 | -91.35087 | 11007 ft | 168 kts | 113° |
| 2026-04-28 22:46 | 14.21582 | -91.34043 | 11008 ft | 168 kts | 113° |
| 2026-04-28 22:47 | 14.20998 | -91.32999 | 11007 ft | 168 kts | 113° |
| 2026-04-28 22:47 | 14.20416 | -91.31958 | 11011 ft | 167 kts | 113° |
| 2026-04-28 22:47 | 14.19836 | -91.30921 | 11011 ft | 167 kts | 113° |
| 2026-04-28 22:47 | 14.19256 | -91.29882 | 11010 ft | 167 kts | 113° |
| 2026-04-28 22:48 | 14.18680 | -91.28842 | 11015 ft | 167 kts | 112° |
| 2026-04-28 22:48 | 14.18105 | -91.27799 | 11014 ft | 167 kts | 112° |
| 2026-04-28 22:48 | 14.17538 | -91.26771 | 11015 ft | 167 kts | 112° |
| 2026-04-28 22:48 | 14.16961 | -91.25728 | 11014 ft | 167 kts | 113° |
| 2026-04-28 22:49 | 14.16386 | -91.24686 | 11018 ft | 167 kts | 113° |
| 2026-04-28 22:49 | 14.15809 | -91.23642 | 11021 ft | 167 kts | 112° |
| 2026-04-28 22:49 | 14.15234 | -91.22600 | 11021 ft | 168 kts | 113° |
| 2026-04-28 22:49 | 14.14657 | -91.21557 | 11025 ft | 168 kts | 112° |
| 2026-04-28 22:50 | 14.14079 | -91.20513 | 11025 ft | 168 kts | 112° |
| 2026-04-28 22:50 | 14.13502 | -91.19469 | 11027 ft | 168 kts | 112° |
| 2026-04-28 22:50 | 14.12926 | -91.18426 | 11025 ft | 168 kts | 112° |
| 2026-04-28 22:50 | 14.12356 | -91.17396 | 11031 ft | 167 kts | 112° |
| 2026-04-28 22:51 | 14.11779 | -91.16353 | 11029 ft | 167 kts | 112° |
| 2026-04-28 22:51 | 14.11202 | -91.15311 | 11030 ft | 167 kts | 112° |
| 2026-04-28 22:51 | 14.10627 | -91.14270 | 11034 ft | 167 kts | 112° |
| 2026-04-28 22:51 | 14.10049 | -91.13226 | 11037 ft | 168 kts | 112° |
| 2026-04-28 22:52 | 14.09472 | -91.12183 | 11035 ft | 168 kts | 112° |
| 2026-04-28 22:52 | 14.08894 | -91.11139 | 11035 ft | 168 kts | 112° |
| 2026-04-28 22:52 | 14.08317 | -91.10096 | 11038 ft | 168 kts | 112° |
| 2026-04-28 22:52 | 14.07739 | -91.09052 | 11036 ft | 168 kts | 112° |
| 2026-04-28 22:53 | 14.07158 | -91.08003 | 11039 ft | 168 kts | 112° |
| 2026-04-28 22:53 | 14.06580 | -91.06959 | 11043 ft | 168 kts | 112° |
| 2026-04-28 22:53 | 14.06001 | -91.05913 | 11042 ft | 168 kts | 112° |
| 2026-04-28 22:53 | 14.05429 | -91.04880 | 11044 ft | 168 kts | 112° |
| 2026-04-28 22:54 | 14.04849 | -91.03834 | 11048 ft | 168 kts | 112° |
| 2026-04-28 22:54 | 14.04270 | -91.02788 | 11048 ft | 168 kts | 112° |
| 2026-04-28 22:54 | 14.03689 | -91.01740 | 11041 ft | 168 kts | 112° |
| 2026-04-28 22:54 | 14.03304 | -91.01045 | 11044 ft | 169 kts | 113° |
| 2026-04-28 22:55 | 14.02722 | -90.99996 | 11046 ft | 168 kts | 112° |
| 2026-04-28 22:55 | 14.02142 | -90.98949 | 11048 ft | 168 kts | 112° |
| 2026-04-28 22:55 | 14.01562 | -90.97903 | 11052 ft | 168 kts | 112° |
| 2026-04-28 22:55 | 14.00981 | -90.96854 | 11053 ft | 168 kts | 112° |
| 2026-04-28 22:56 | 14.00406 | -90.95818 | 11052 ft | 169 kts | 112° |
| 2026-04-28 22:56 | 13.99825 | -90.94770 | 11056 ft | 168 kts | 112° |
| 2026-04-28 22:56 | 13.99243 | -90.93720 | 11055 ft | 169 kts | 112° |
| 2026-04-28 22:56 | 13.98662 | -90.92673 | 11059 ft | 168 kts | 112° |
| 2026-04-28 22:57 | 13.98081 | -90.91627 | 11059 ft | 168 kts | 112° |
| 2026-04-28 22:57 | 13.97500 | -90.90579 | 11063 ft | 169 kts | 112° |
| 2026-04-28 22:57 | 13.96918 | -90.89531 | 11067 ft | 168 kts | 112° |
| 2026-04-28 22:57 | 13.96336 | -90.88482 | 11069 ft | 169 kts | 112° |
| 2026-04-28 22:58 | 13.95754 | -90.87433 | 11063 ft | 169 kts | 112° |
| 2026-04-28 22:58 | 13.95174 | -90.86387 | 11074 ft | 168 kts | 112° |
| 2026-04-28 22:58 | 13.94592 | -90.85340 | 11069 ft | 168 kts | 112° |
| 2026-04-28 22:58 | 13.94012 | -90.84295 | 11070 ft | 168 kts | 112° |
| 2026-04-28 22:59 | 13.93439 | -90.83247 | 11072 ft | 166 kts | 109° |
| 2026-04-28 22:59 | 13.93088 | -90.82137 | 11073 ft | 162 kts | 98° |
| 2026-04-28 22:59 | 13.92788 | -90.81029 | 11071 ft | 163 kts | 99° |
| 2026-04-28 22:59 | 13.92472 | -90.79902 | 11079 ft | 164 kts | 99° |
| 2026-04-28 23:00 | 13.92153 | -90.78778 | 11077 ft | 163 kts | 99° |
| 2026-04-28 23:00 | 13.91835 | -90.77655 | 11071 ft | 163 kts | 99° |
| 2026-04-28 23:00 | 13.91518 | -90.76533 | 11073 ft | 163 kts | 99° |
| 2026-04-28 23:00 | 13.91201 | -90.75412 | 11071 ft | 163 kts | 99° |
| 2026-04-28 23:01 | 13.90884 | -90.74290 | 11071 ft | 163 kts | 99° |
| 2026-04-28 23:01 | 13.90567 | -90.73168 | 11074 ft | 163 kts | 99° |
| 2026-04-28 23:01 | 13.90249 | -90.72045 | 11072 ft | 163 kts | 99° |
| 2026-04-28 23:01 | 13.89932 | -90.70924 | 11073 ft | 163 kts | 99° |
| 2026-04-28 23:02 | 13.89615 | -90.69804 | 11073 ft | 163 kts | 99° |
| 2026-04-28 23:02 | 13.89298 | -90.68683 | 11074 ft | 163 kts | 99° |
| 2026-04-28 23:02 | 13.88986 | -90.67577 | 11072 ft | 163 kts | 99° |
| 2026-04-28 23:02 | 13.88663 | -90.66441 | 11076 ft | 163 kts | 99° |
| 2026-04-28 23:03 | 13.88349 | -90.65332 | 11072 ft | 163 kts | 99° |
| 2026-04-28 23:03 | 13.88031 | -90.64209 | 11072 ft | 163 kts | 99° |
| 2026-04-28 23:03 | 13.87713 | -90.63086 | 11070 ft | 163 kts | 99° |
| 2026-04-28 23:03 | 13.87395 | -90.61963 | 11072 ft | 163 kts | 99° |
| 2026-04-28 23:04 | 13.87078 | -90.60844 | 11067 ft | 163 kts | 99° |
| 2026-04-28 23:04 | 13.86442 | -90.58599 | 11062 ft | 163 kts | 99° |
| 2026-04-28 23:04 | 13.86123 | -90.57476 | 11063 ft | 163 kts | 99° |
| 2026-04-28 23:05 | 13.85809 | -90.56368 | 11058 ft | 163 kts | 99° |
| 2026-04-28 23:05 | 13.85491 | -90.55249 | 11059 ft | 163 kts | 99° |
| 2026-04-28 23:05 | 13.85173 | -90.54127 | 11055 ft | 163 kts | 99° |
| 2026-04-28 23:05 | 13.84856 | -90.53008 | 11054 ft | 163 kts | 99° |
| 2026-04-28 23:06 | 13.84538 | -90.51889 | 11052 ft | 163 kts | 99° |
| 2026-04-28 23:06 | 13.84221 | -90.50772 | 11050 ft | 163 kts | 99° |
| 2026-04-28 23:06 | 13.83904 | -90.49656 | 11046 ft | 163 kts | 99° |
| 2026-04-28 23:06 | 13.83587 | -90.48537 | 11049 ft | 163 kts | 99° |
| 2026-04-28 23:07 | 13.83268 | -90.47414 | 11046 ft | 164 kts | 99° |
| 2026-04-28 23:07 | 13.82948 | -90.46290 | 11049 ft | 164 kts | 99° |
| 2026-04-28 23:07 | 13.82629 | -90.45164 | 11044 ft | 164 kts | 99° |
| 2026-04-28 23:07 | 13.82309 | -90.44040 | 11045 ft | 164 kts | 99° |
| 2026-04-28 23:08 | 13.81989 | -90.42914 | 11037 ft | 164 kts | 99° |
| 2026-04-28 23:08 | 13.81669 | -90.41787 | 11037 ft | 164 kts | 99° |
| 2026-04-28 23:08 | 13.81349 | -90.40663 | 11036 ft | 164 kts | 100° |
| 2026-04-28 23:08 | 13.81029 | -90.39535 | 11035 ft | 164 kts | 100° |
| 2026-04-28 23:09 | 13.80712 | -90.38423 | 11033 ft | 164 kts | 100° |
| 2026-04-28 23:09 | 13.80391 | -90.37294 | 11031 ft | 164 kts | 100° |
| 2026-04-28 23:09 | 13.80069 | -90.36164 | 11033 ft | 165 kts | 100° |
| 2026-04-28 23:09 | 13.79747 | -90.35032 | 11030 ft | 165 kts | 99° |
| 2026-04-28 23:10 | 13.79425 | -90.33899 | 11026 ft | 165 kts | 99° |
| 2026-04-28 23:10 | 13.79102 | -90.32765 | 11025 ft | 165 kts | 99° |
| 2026-04-28 23:10 | 13.78779 | -90.31633 | 11023 ft | 165 kts | 100° |
| 2026-04-28 23:10 | 13.78452 | -90.30502 | 11021 ft | 165 kts | 100° |
| 2026-04-28 23:11 | 13.78125 | -90.29371 | 11020 ft | 165 kts | 100° |
| 2026-04-28 23:11 | 13.77798 | -90.28241 | 11018 ft | 165 kts | 100° |
| 2026-04-28 23:11 | 13.77472 | -90.27113 | 11009 ft | 165 kts | 100° |
| 2026-04-28 23:11 | 13.77146 | -90.25984 | 11004 ft | 165 kts | 100° |
| 2026-04-28 23:12 | 13.76820 | -90.24856 | 10999 ft | 164 kts | 100° |
| 2026-04-28 23:12 | 13.76494 | -90.23730 | 10998 ft | 164 kts | 100° |
| 2026-04-28 23:12 | 13.76170 | -90.22606 | 10997 ft | 164 kts | 100° |
| 2026-04-28 23:12 | 13.75844 | -90.21480 | 10994 ft | 164 kts | 100° |
| 2026-04-28 23:13 | 13.75522 | -90.20367 | 10990 ft | 164 kts | 100° |
| 2026-04-28 23:13 | 13.75197 | -90.19243 | 10988 ft | 164 kts | 100° |
| 2026-04-28 23:13 | 13.74870 | -90.18114 | 10988 ft | 164 kts | 100° |
| 2026-04-28 23:13 | 13.74545 | -90.16988 | 10984 ft | 164 kts | 100° |
| 2026-04-28 23:14 | 13.74219 | -90.15862 | 10983 ft | 164 kts | 100° |
| 2026-04-28 23:14 | 13.73893 | -90.14737 | 10982 ft | 164 kts | 100° |
| 2026-04-28 23:14 | 13.73568 | -90.13612 | 10985 ft | 164 kts | 100° |
| 2026-04-28 23:14 | 13.73242 | -90.12488 | 10980 ft | 164 kts | 100° |
| 2026-04-28 23:15 | 13.72916 | -90.11362 | 10976 ft | 164 kts | 100° |
| 2026-04-28 23:15 | 13.72595 | -90.10238 | 10976 ft | 164 kts | 100° |
| 2026-04-28 23:15 | 13.72275 | -90.09112 | 10974 ft | 164 kts | 100° |
| 2026-04-28 23:15 | 13.71954 | -90.07986 | 10969 ft | 164 kts | 100° |
| 2026-04-28 23:16 | 13.71633 | -90.06860 | 10968 ft | 164 kts | 100° |
| 2026-04-28 23:16 | 13.71311 | -90.05734 | 10970 ft | 164 kts | 99° |
| 2026-04-28 23:16 | 13.70994 | -90.04623 | 10966 ft | 164 kts | 100° |
| 2026-04-28 23:16 | 13.70673 | -90.03498 | 10965 ft | 164 kts | 100° |
| 2026-04-28 23:17 | 13.70352 | -90.02372 | 10962 ft | 164 kts | 100° |
| 2026-04-28 23:17 | 13.70030 | -90.01247 | 10960 ft | 164 kts | 100° |
| 2026-04-28 23:17 | 13.69709 | -90.00123 | 10958 ft | 164 kts | 100° |
| 2026-04-28 23:17 | 13.69388 | -89.98999 | 10951 ft | 164 kts | 99° |
| 2026-04-28 23:18 | 13.69067 | -89.97872 | 10952 ft | 164 kts | 99° |
| 2026-04-28 23:18 | 13.68744 | -89.96743 | 10953 ft | 165 kts | 99° |
| 2026-04-28 23:18 | 13.68421 | -89.95611 | 10953 ft | 165 kts | 99° |
| 2026-04-28 23:18 | 13.68097 | -89.94480 | 10953 ft | 165 kts | 99° |
| 2026-04-28 23:19 | 13.67773 | -89.93347 | 10953 ft | 165 kts | 100° |
| 2026-04-28 23:19 | 13.67450 | -89.92215 | 10952 ft | 165 kts | 100° |
| 2026-04-28 23:19 | 13.67125 | -89.91078 | 10949 ft | 165 kts | 100° |
| 2026-04-28 23:19 | 13.66800 | -89.89944 | 10949 ft | 165 kts | 100° |
| 2026-04-28 23:20 | 13.66476 | -89.88812 | 10949 ft | 165 kts | 99° |
| 2026-04-28 23:20 | 13.66155 | -89.87691 | 10951 ft | 166 kts | 99° |
| 2026-04-28 23:20 | 13.65830 | -89.86553 | 10951 ft | 166 kts | 99° |
| 2026-04-28 23:20 | 13.65504 | -89.85416 | 10948 ft | 166 kts | 99° |
| 2026-04-28 23:21 | 13.65177 | -89.84271 | 10949 ft | 166 kts | 99° |
| 2026-04-28 23:21 | 13.64848 | -89.83124 | 10950 ft | 167 kts | 99° |
| 2026-04-28 23:21 | 13.64522 | -89.81989 | 10950 ft | 166 kts | 99° |
| 2026-04-28 23:21 | 13.64198 | -89.80857 | 10948 ft | 166 kts | 100° |
| 2026-04-28 23:22 | 13.63870 | -89.79712 | 10948 ft | 166 kts | 99° |
| 2026-04-28 23:22 | 13.63542 | -89.78568 | 10947 ft | 166 kts | 99° |
| 2026-04-28 23:22 | 13.63214 | -89.77422 | 10947 ft | 166 kts | 100° |
| 2026-04-28 23:22 | 13.62889 | -89.76290 | 10947 ft | 166 kts | 99° |
| 2026-04-28 23:23 | 13.62561 | -89.75144 | 10948 ft | 166 kts | 99° |
| 2026-04-28 23:23 | 13.62236 | -89.74011 | 10948 ft | 166 kts | 99° |
| 2026-04-28 23:23 | 13.61912 | -89.72883 | 10948 ft | 166 kts | 99° |
| 2026-04-28 23:23 | 13.61583 | -89.71737 | 10949 ft | 166 kts | 99° |
| 2026-04-28 23:24 | 13.61259 | -89.70604 | 10948 ft | 166 kts | 99° |
| 2026-04-28 23:24 | 13.60929 | -89.69458 | 10948 ft | 167 kts | 99° |
| 2026-04-28 23:24 | 13.60601 | -89.68314 | 10953 ft | 167 kts | 99° |
| 2026-04-28 23:24 | 13.60271 | -89.67163 | 10946 ft | 167 kts | 99° |
| 2026-04-28 23:25 | 13.59946 | -89.66031 | 10948 ft | 167 kts | 100° |
| 2026-04-28 23:25 | 13.59615 | -89.64883 | 10948 ft | 167 kts | 100° |
| 2026-04-28 23:25 | 13.59285 | -89.63732 | 10951 ft | 167 kts | 99° |
| 2026-04-28 23:25 | 13.58959 | -89.62598 | 10949 ft | 167 kts | 99° |
| 2026-04-28 23:26 | 13.58630 | -89.61451 | 10946 ft | 167 kts | 99° |
| 2026-04-28 23:26 | 13.58301 | -89.60309 | 10951 ft | 167 kts | 99° |
| 2026-04-28 23:26 | 13.57971 | -89.59161 | 10953 ft | 167 kts | 99° |
| 2026-04-28 23:26 | 13.57646 | -89.58030 | 10952 ft | 167 kts | 99° |
| 2026-04-28 23:27 | 13.57316 | -89.56882 | 10954 ft | 166 kts | 99° |
| 2026-04-28 23:27 | 13.56987 | -89.55742 | 10951 ft | 166 kts | 99° |
| 2026-04-28 23:27 | 13.56663 | -89.54612 | 10954 ft | 166 kts | 99° |
| 2026-04-28 23:27 | 13.56335 | -89.53471 | 10954 ft | 166 kts | 99° |
| 2026-04-28 23:28 | 13.56005 | -89.52325 | 10953 ft | 167 kts | 100° |
| 2026-04-28 23:28 | 13.55674 | -89.51175 | 10954 ft | 167 kts | 100° |
| 2026-04-28 23:28 | 13.55346 | -89.50036 | 10957 ft | 168 kts | 100° |
| 2026-04-28 23:28 | 13.55014 | -89.48884 | 10957 ft | 167 kts | 99° |
| 2026-04-28 23:29 | 13.54685 | -89.47744 | 10952 ft | 167 kts | 99° |
| 2026-04-28 23:29 | 13.54354 | -89.46590 | 10956 ft | 168 kts | 99° |
| 2026-04-28 23:29 | 13.54026 | -89.45454 | 10952 ft | 167 kts | 99° |
| 2026-04-28 23:29 | 13.53695 | -89.44307 | 10960 ft | 167 kts | 99° |
| 2026-04-28 23:30 | 13.53363 | -89.43151 | 10969 ft | 169 kts | 100° |
| 2026-04-28 23:30 | 13.53028 | -89.41990 | 10974 ft | 169 kts | 100° |
| 2026-04-28 23:30 | 13.52696 | -89.40843 | 10980 ft | 169 kts | 100° |
| 2026-04-28 23:30 | 13.52359 | -89.39673 | 10987 ft | 171 kts | 100° |
| 2026-04-28 23:31 | 13.52020 | -89.38497 | 10990 ft | 170 kts | 100° |
| 2026-04-28 23:31 | 13.51689 | -89.37350 | 10997 ft | 168 kts | 100° |
| 2026-04-28 23:31 | 13.51357 | -89.36203 | 11001 ft | 167 kts | 100° |
| 2026-04-28 23:31 | 13.51028 | -89.35061 | 11004 ft | 167 kts | 99° |
| 2026-04-28 23:32 | 13.50695 | -89.33907 | 10948 ft | 167 kts | 100° |
| 2026-04-28 23:32 | 13.50367 | -89.32767 | 10949 ft | 168 kts | 100° |
| 2026-04-28 23:32 | 13.50031 | -89.31605 | 10951 ft | 169 kts | 100° |
| 2026-04-28 23:32 | 13.49694 | -89.30438 | 10949 ft | 170 kts | 100° |
| 2026-04-28 23:33 | 13.49362 | -89.29291 | 10947 ft | 170 kts | 100° |
| 2026-04-28 23:33 | 13.49026 | -89.28129 | 10944 ft | 169 kts | 100° |
| 2026-04-28 23:33 | 13.48692 | -89.26972 | 10943 ft | 168 kts | 100° |
| 2026-04-28 23:33 | 13.48362 | -89.25832 | 10944 ft | 168 kts | 100° |
| 2026-04-28 23:34 | 13.48030 | -89.24679 | 10944 ft | 167 kts | 100° |
| 2026-04-28 23:34 | 13.47697 | -89.23531 | 10945 ft | 167 kts | 100° |
| 2026-04-28 23:34 | 13.47364 | -89.22379 | 10945 ft | 167 kts | 100° |
| 2026-04-28 23:34 | 13.47033 | -89.21235 | 10944 ft | 167 kts | 100° |
| 2026-04-28 23:35 | 13.46706 | -89.20106 | 10943 ft | 167 kts | 100° |
| 2026-04-28 23:35 | 13.46375 | -89.18960 | 10945 ft | 167 kts | 100° |
| 2026-04-28 23:35 | 13.46043 | -89.17813 | 10945 ft | 167 kts | 100° |
| 2026-04-28 23:35 | 13.45711 | -89.16666 | 10946 ft | 167 kts | 100° |
| 2026-04-28 23:36 | 13.45382 | -89.15530 | 10946 ft | 167 kts | 100° |
| 2026-04-28 23:36 | 13.45049 | -89.14381 | 10947 ft | 167 kts | 100° |
| 2026-04-28 23:36 | 13.44722 | -89.13252 | 10948 ft | 166 kts | 100° |
| 2026-04-28 23:36 | 13.44391 | -89.12110 | 10947 ft | 166 kts | 100° |
| 2026-04-28 23:37 | 13.44062 | -89.10972 | 10947 ft | 166 kts | 100° |
| 2026-04-28 23:37 | 13.43731 | -89.09829 | 10948 ft | 166 kts | 100° |
| 2026-04-28 23:37 | 13.43399 | -89.08686 | 10948 ft | 167 kts | 100° |
| 2026-04-28 23:37 | 13.43006 | -89.07569 | 10947 ft | 169 kts | 108° |
| 2026-04-28 23:38 | 13.42516 | -89.06470 | 10946 ft | 169 kts | 107° |
| 2026-04-28 23:38 | 13.42040 | -89.05364 | 10949 ft | 169 kts | 107° |
| 2026-04-28 23:38 | 13.41568 | -89.04275 | 10949 ft | 169 kts | 107° |
| 2026-04-28 23:38 | 13.41087 | -89.03170 | 10950 ft | 169 kts | 107° |
| 2026-04-28 23:39 | 13.40604 | -89.02062 | 10949 ft | 169 kts | 107° |
| 2026-04-28 23:39 | 13.40121 | -89.00956 | 10949 ft | 169 kts | 107° |
| 2026-04-28 23:39 | 13.39646 | -88.99866 | 10951 ft | 169 kts | 107° |
| 2026-04-28 23:39 | 13.39164 | -88.98763 | 10950 ft | 169 kts | 107° |
| 2026-04-28 23:40 | 13.38683 | -88.97660 | 10951 ft | 169 kts | 107° |
| 2026-04-28 23:40 | 13.38207 | -88.96569 | 10947 ft | 169 kts | 107° |
| 2026-04-28 23:40 | 13.37725 | -88.95465 | 10949 ft | 169 kts | 107° |
| 2026-04-28 23:40 | 13.37248 | -88.94373 | 10948 ft | 169 kts | 107° |
| 2026-04-28 23:41 | 13.36766 | -88.93269 | 10947 ft | 169 kts | 107° |
| 2026-04-28 23:41 | 13.36446 | -88.92535 | 10947 ft | 169 kts | 107° |
| 2026-04-28 23:41 | 13.35808 | -88.91074 | 10946 ft | 169 kts | 107° |
| 2026-04-28 23:41 | 13.35325 | -88.89969 | 10945 ft | 169 kts | 107° |
| 2026-04-28 23:42 | 13.35007 | -88.89242 | 10984 ft | 166 kts | 107° |
| 2026-04-28 23:42 | 13.34532 | -88.88155 | 10992 ft | 167 kts | 107° |
| 2026-04-28 23:42 | 13.34055 | -88.87061 | 10994 ft | 168 kts | 107° |
| 2026-04-28 23:42 | 13.33575 | -88.85963 | 10991 ft | 168 kts | 107° |
| 2026-04-28 23:43 | 13.33100 | -88.84877 | 10987 ft | 168 kts | 107° |
| 2026-04-28 23:43 | 13.32619 | -88.83777 | 10990 ft | 168 kts | 107° |
| 2026-04-28 23:43 | 13.32137 | -88.82674 | 10991 ft | 169 kts | 107° |
| 2026-04-28 23:43 | 13.31661 | -88.81586 | 10987 ft | 169 kts | 107° |
| 2026-04-28 23:44 | 13.31178 | -88.80481 | 10989 ft | 169 kts | 107° |
| 2026-04-28 23:44 | 13.30696 | -88.79379 | 10989 ft | 169 kts | 107° |
| 2026-04-28 23:44 | 13.30213 | -88.78276 | 10991 ft | 169 kts | 107° |
| 2026-04-28 23:44 | 13.29731 | -88.77173 | 10984 ft | 169 kts | 107° |
| 2026-04-28 23:45 | 13.29253 | -88.76082 | 10988 ft | 169 kts | 107° |
| 2026-04-28 23:45 | 13.28771 | -88.74980 | 10986 ft | 169 kts | 107° |
| 2026-04-28 23:45 | 13.28288 | -88.73877 | 10983 ft | 169 kts | 107° |
| 2026-04-28 23:45 | 13.27811 | -88.72786 | 10981 ft | 169 kts | 107° |
| 2026-04-28 23:46 | 13.27328 | -88.71683 | 10986 ft | 169 kts | 107° |
| 2026-04-28 23:46 | 13.26844 | -88.70578 | 10989 ft | 169 kts | 107° |
| 2026-04-28 23:46 | 13.26365 | -88.69485 | 10988 ft | 169 kts | 107° |
| 2026-04-28 23:46 | 13.25882 | -88.68380 | 10989 ft | 169 kts | 107° |
| 2026-04-28 23:47 | 13.25397 | -88.67273 | 10985 ft | 169 kts | 107° |
| 2026-04-28 23:47 | 13.24912 | -88.66170 | 10987 ft | 169 kts | 107° |
| 2026-04-28 23:47 | 13.24429 | -88.65067 | 10986 ft | 169 kts | 107° |
| 2026-04-28 23:47 | 13.23950 | -88.63972 | 10990 ft | 169 kts | 107° |
| 2026-04-28 23:48 | 13.23465 | -88.62867 | 10992 ft | 169 kts | 107° |
| 2026-04-28 23:48 | 13.22981 | -88.61763 | 10988 ft | 169 kts | 107° |
| 2026-04-28 23:48 | 13.22503 | -88.60670 | 10985 ft | 169 kts | 107° |
| 2026-04-28 23:48 | 13.22018 | -88.59566 | 10987 ft | 169 kts | 107° |
| 2026-04-28 23:49 | 13.21535 | -88.58465 | 10990 ft | 168 kts | 107° |
| 2026-04-28 23:49 | 13.21054 | -88.57367 | 10992 ft | 169 kts | 107° |
| 2026-04-28 23:49 | 13.20577 | -88.56279 | 10989 ft | 169 kts | 107° |
| 2026-04-28 23:49 | 13.20092 | -88.55176 | 10992 ft | 169 kts | 107° |
| 2026-04-28 23:50 | 13.19614 | -88.54085 | 10993 ft | 169 kts | 107° |
| 2026-04-28 23:50 | 13.19131 | -88.52985 | 10993 ft | 169 kts | 107° |
| 2026-04-28 23:50 | 13.18647 | -88.51881 | 10993 ft | 168 kts | 107° |
| 2026-04-28 23:50 | 13.18168 | -88.50791 | 11000 ft | 168 kts | 107° |
| 2026-04-28 23:51 | 13.17684 | -88.49688 | 10996 ft | 169 kts | 107° |
| 2026-04-28 23:51 | 13.17204 | -88.48596 | 10995 ft | 168 kts | 107° |
| 2026-04-28 23:51 | 13.16729 | -88.47513 | 10996 ft | 168 kts | 107° |
| 2026-04-28 23:51 | 13.16246 | -88.46414 | 10995 ft | 168 kts | 107° |
| 2026-04-28 23:52 | 13.15764 | -88.45316 | 10997 ft | 168 kts | 107° |
| 2026-04-28 23:52 | 13.15288 | -88.44233 | 10994 ft | 168 kts | 107° |
| 2026-04-28 23:52 | 13.14810 | -88.43145 | 10990 ft | 168 kts | 107° |
| 2026-04-28 23:52 | 13.14330 | -88.42054 | 10991 ft | 167 kts | 107° |
| 2026-04-28 23:53 | 13.13851 | -88.40962 | 10989 ft | 167 kts | 107° |
| 2026-04-28 23:53 | 13.13378 | -88.39887 | 10993 ft | 167 kts | 107° |
| 2026-04-28 23:53 | 13.12900 | -88.38798 | 10991 ft | 167 kts | 107° |
| 2026-04-28 23:53 | 13.12420 | -88.37709 | 10992 ft | 167 kts | 107° |
| 2026-04-28 23:54 | 13.11941 | -88.36619 | 10995 ft | 167 kts | 107° |
| 2026-04-28 23:54 | 13.11467 | -88.35540 | 10996 ft | 167 kts | 107° |
| 2026-04-28 23:54 | 13.10987 | -88.34449 | 10999 ft | 167 kts | 107° |
| 2026-04-28 23:54 | 13.10506 | -88.33355 | 10998 ft | 168 kts | 107° |
| 2026-04-28 23:55 | 13.10030 | -88.32274 | 10997 ft | 168 kts | 107° |
| 2026-04-28 23:55 | 13.09549 | -88.31180 | 10999 ft | 168 kts | 107° |
| 2026-04-28 23:55 | 13.09066 | -88.30083 | 10997 ft | 168 kts | 107° |
| 2026-04-28 23:55 | 13.08591 | -88.29004 | 11000 ft | 168 kts | 107° |
| 2026-04-28 23:56 | 13.08110 | -88.27911 | 11000 ft | 167 kts | 107° |
| 2026-04-28 23:56 | 13.07629 | -88.26820 | 11004 ft | 167 kts | 107° |
| 2026-04-28 23:56 | 13.07152 | -88.25735 | 10999 ft | 167 kts | 107° |
| 2026-04-28 23:56 | 13.06673 | -88.24649 | 10999 ft | 167 kts | 107° |
| 2026-04-28 23:57 | 13.06198 | -88.23570 | 11002 ft | 167 kts | 107° |
| 2026-04-28 23:57 | 13.05719 | -88.22483 | 11000 ft | 167 kts | 107° |
| 2026-04-28 23:57 | 13.05246 | -88.21409 | 10998 ft | 167 kts | 107° |
| 2026-04-28 23:57 | 13.04768 | -88.20325 | 11001 ft | 166 kts | 107° |
| 2026-04-28 23:58 | 13.04290 | -88.19239 | 11001 ft | 167 kts | 107° |
| 2026-04-28 23:58 | 13.03816 | -88.18164 | 10999 ft | 167 kts | 107° |
| 2026-04-28 23:58 | 13.03335 | -88.17072 | 11000 ft | 167 kts | 107° |
| 2026-04-28 23:58 | 13.02857 | -88.15988 | 11003 ft | 167 kts | 107° |
| 2026-04-28 23:59 | 13.02382 | -88.14910 | 11004 ft | 167 kts | 107° |
| 2026-04-28 23:59 | 13.01900 | -88.13818 | 11000 ft | 167 kts | 107° |
| 2026-04-28 23:59 | 13.01421 | -88.12732 | 11002 ft | 167 kts | 107° |
| 2026-04-28 23:59 | 13.00939 | -88.11639 | 11009 ft | 167 kts | 107° |
| 2026-04-29 00:00 | 13.00464 | -88.10562 | 11000 ft | 167 kts | 107° |
| 2026-04-29 00:00 | 12.99983 | -88.09472 | 10999 ft | 167 kts | 107° |
| 2026-04-29 00:00 | 12.99501 | -88.08379 | 11000 ft | 167 kts | 107° |
| 2026-04-29 00:00 | 12.99027 | -88.07305 | 11000 ft | 167 kts | 107° |
| 2026-04-29 00:01 | 12.98546 | -88.06216 | 10996 ft | 167 kts | 107° |
| 2026-04-29 00:01 | 12.98071 | -88.05140 | 11001 ft | 167 kts | 107° |
| 2026-04-29 00:01 | 12.97590 | -88.04050 | 11004 ft | 167 kts | 107° |
| 2026-04-29 00:01 | 12.97109 | -88.02961 | 11002 ft | 167 kts | 107° |
| 2026-04-29 00:02 | 12.96633 | -88.01882 | 10996 ft | 167 kts | 107° |
| 2026-04-29 00:02 | 12.96151 | -88.00791 | 11001 ft | 167 kts | 107° |
| 2026-04-29 00:02 | 12.95676 | -87.99716 | 11002 ft | 167 kts | 107° |
| 2026-04-29 00:02 | 12.95192 | -87.98622 | 11000 ft | 167 kts | 107° |
| 2026-04-29 00:03 | 12.94712 | -87.97535 | 10996 ft | 167 kts | 107° |
| 2026-04-29 00:03 | 12.94234 | -87.96453 | 11000 ft | 167 kts | 107° |
| 2026-04-29 00:03 | 12.93755 | -87.95369 | 10998 ft | 167 kts | 107° |
| 2026-04-29 00:03 | 12.93276 | -87.94285 | 10999 ft | 167 kts | 107° |
| 2026-04-29 00:04 | 12.92803 | -87.93216 | 10996 ft | 167 kts | 107° |
| 2026-04-29 00:04 | 12.92324 | -87.92132 | 10995 ft | 167 kts | 107° |
| 2026-04-29 00:04 | 12.91845 | -87.91048 | 10998 ft | 167 kts | 107° |
| 2026-04-29 00:04 | 12.91366 | -87.89965 | 10998 ft | 167 kts | 107° |
| 2026-04-29 00:05 | 12.90887 | -87.88883 | 10997 ft | 166 kts | 107° |
| 2026-04-29 00:05 | 12.90409 | -87.87802 | 10996 ft | 166 kts | 107° |
| 2026-04-29 00:05 | 12.89931 | -87.86723 | 11001 ft | 166 kts | 107° |
| 2026-04-29 00:05 | 12.89454 | -87.85644 | 10997 ft | 166 kts | 107° |
| 2026-04-29 00:06 | 12.88977 | -87.84566 | 11000 ft | 166 kts | 107° |
| 2026-04-29 00:06 | 12.88500 | -87.83488 | 10996 ft | 166 kts | 107° |
| 2026-04-29 00:06 | 12.88024 | -87.82413 | 10996 ft | 166 kts | 107° |
| 2026-04-29 00:06 | 12.87548 | -87.81338 | 10998 ft | 166 kts | 107° |
| 2026-04-29 00:07 | 12.87069 | -87.80263 | 10998 ft | 165 kts | 107° |
| 2026-04-29 00:07 | 12.86590 | -87.79190 | 10995 ft | 165 kts | 107° |
| 2026-04-29 00:07 | 12.86114 | -87.78120 | 10995 ft | 165 kts | 107° |
| 2026-04-29 00:07 | 12.85637 | -87.77050 | 10992 ft | 165 kts | 107° |
| 2026-04-29 00:08 | 12.85161 | -87.75980 | 10998 ft | 165 kts | 107° |
| 2026-04-29 00:08 | 12.84685 | -87.74912 | 11000 ft | 165 kts | 107° |
| 2026-04-29 00:08 | 12.84215 | -87.73857 | 10997 ft | 165 kts | 108° |
| 2026-04-29 00:08 | 12.83738 | -87.72788 | 11001 ft | 165 kts | 108° |
| 2026-04-29 00:09 | 12.83260 | -87.71716 | 10999 ft | 165 kts | 108° |
| 2026-04-29 00:09 | 12.82782 | -87.70645 | 11000 ft | 165 kts | 108° |
| 2026-04-29 00:09 | 12.82306 | -87.69575 | 10995 ft | 165 kts | 108° |
| 2026-04-29 00:09 | 12.81826 | -87.68500 | 10997 ft | 165 kts | 108° |
| 2026-04-29 00:10 | 12.81350 | -87.67431 | 11001 ft | 165 kts | 108° |
| 2026-04-29 00:10 | 12.80872 | -87.66362 | 10999 ft | 165 kts | 108° |
| 2026-04-29 00:10 | 12.80397 | -87.65295 | 10999 ft | 164 kts | 108° |
| 2026-04-29 00:10 | 12.79922 | -87.64231 | 10998 ft | 164 kts | 108° |
| 2026-04-29 00:11 | 12.79447 | -87.63168 | 11000 ft | 164 kts | 108° |
| 2026-04-29 00:11 | 12.78973 | -87.62105 | 11000 ft | 164 kts | 108° |
| 2026-04-29 00:11 | 12.78030 | -87.59993 | 10999 ft | 164 kts | 108° |
| 2026-04-29 00:12 | 12.77556 | -87.58930 | 10997 ft | 164 kts | 108° |
| 2026-04-29 00:12 | 12.77080 | -87.57865 | 10999 ft | 164 kts | 108° |
| 2026-04-29 00:12 | 12.76604 | -87.56799 | 10997 ft | 164 kts | 108° |
| 2026-04-29 00:12 | 12.76129 | -87.55734 | 10997 ft | 164 kts | 108° |
| 2026-04-29 00:13 | 12.75653 | -87.54669 | 11001 ft | 164 kts | 108° |
| 2026-04-29 00:13 | 12.75172 | -87.53592 | 10999 ft | 164 kts | 108° |
| 2026-04-29 00:13 | 12.74702 | -87.52541 | 11003 ft | 164 kts | 108° |
| 2026-04-29 00:13 | 12.74228 | -87.51480 | 11000 ft | 164 kts | 108° |
| 2026-04-29 00:14 | 12.73754 | -87.50420 | 10994 ft | 163 kts | 108° |
| 2026-04-29 00:14 | 12.73281 | -87.49360 | 10998 ft | 163 kts | 108° |
| 2026-04-29 00:14 | 12.72808 | -87.48303 | 10996 ft | 163 kts | 108° |
| 2026-04-29 00:14 | 12.72335 | -87.47245 | 10993 ft | 163 kts | 108° |
| 2026-04-29 00:15 | 12.71863 | -87.46189 | 10996 ft | 163 kts | 108° |
| 2026-04-29 00:15 | 12.71392 | -87.45135 | 10994 ft | 163 kts | 108° |
| 2026-04-29 00:15 | 12.70921 | -87.44082 | 11000 ft | 163 kts | 108° |
| 2026-04-29 00:15 | 12.70449 | -87.43026 | 10996 ft | 163 kts | 108° |
| 2026-04-29 00:16 | 12.69980 | -87.41978 | 10993 ft | 164 kts | 108° |
| 2026-04-29 00:16 | 12.69505 | -87.40918 | 10994 ft | 164 kts | 108° |
| 2026-04-29 00:16 | 12.69030 | -87.39856 | 10995 ft | 164 kts | 108° |
| 2026-04-29 00:16 | 12.68554 | -87.38792 | 10992 ft | 164 kts | 108° |
| 2026-04-29 00:17 | 12.68078 | -87.37728 | 10995 ft | 165 kts | 108° |
| 2026-04-29 00:17 | 12.67600 | -87.36662 | 10992 ft | 165 kts | 108° |
| 2026-04-29 00:17 | 12.67123 | -87.35595 | 10998 ft | 165 kts | 108° |
| 2026-04-29 00:17 | 12.66645 | -87.34527 | 10995 ft | 165 kts | 108° |
| 2026-04-29 00:18 | 12.66167 | -87.33461 | 10994 ft | 164 kts | 108° |
| 2026-04-29 00:18 | 12.65691 | -87.32396 | 10994 ft | 164 kts | 108° |
| 2026-04-29 00:18 | 12.65214 | -87.31334 | 10996 ft | 164 kts | 108° |
| 2026-04-29 00:18 | 12.64738 | -87.30270 | 10997 ft | 164 kts | 108° |
| 2026-04-29 00:19 | 12.64262 | -87.29206 | 10995 ft | 164 kts | 108° |
| 2026-04-29 00:19 | 12.63785 | -87.28142 | 10991 ft | 165 kts | 108° |
| 2026-04-29 00:19 | 12.63307 | -87.27077 | 10993 ft | 165 kts | 108° |
| 2026-04-29 00:19 | 12.62829 | -87.26010 | 10992 ft | 165 kts | 108° |
| 2026-04-29 00:20 | 12.62351 | -87.24943 | 10990 ft | 165 kts | 108° |
| 2026-04-29 00:20 | 12.61871 | -87.23873 | 10990 ft | 165 kts | 108° |
| 2026-04-29 00:20 | 12.61393 | -87.22805 | 10996 ft | 165 kts | 108° |
| 2026-04-29 00:20 | 12.60914 | -87.21738 | 10994 ft | 165 kts | 108° |
| 2026-04-29 00:21 | 12.60435 | -87.20671 | 10993 ft | 165 kts | 108° |
| 2026-04-29 00:21 | 12.59956 | -87.19603 | 10989 ft | 165 kts | 108° |
| 2026-04-29 00:21 | 12.59484 | -87.18550 | 10990 ft | 165 kts | 108° |
| 2026-04-29 00:21 | 12.58999 | -87.17469 | 10997 ft | 165 kts | 108° |
| 2026-04-29 00:22 | 12.58527 | -87.16417 | 10992 ft | 165 kts | 108° |
| 2026-04-29 00:22 | 12.58049 | -87.15352 | 10991 ft | 165 kts | 108° |
| 2026-04-29 00:22 | 12.57569 | -87.14283 | 10990 ft | 165 kts | 108° |
| 2026-04-29 00:22 | 12.57088 | -87.13211 | 10993 ft | 166 kts | 108° |
| 2026-04-29 00:23 | 12.56606 | -87.12137 | 10990 ft | 166 kts | 108° |
| 2026-04-29 00:23 | 12.56124 | -87.11063 | 10994 ft | 166 kts | 108° |
| 2026-04-29 00:23 | 12.55643 | -87.09992 | 10993 ft | 165 kts | 108° |
| 2026-04-29 00:23 | 12.55164 | -87.08924 | 10992 ft | 165 kts | 108° |
| 2026-04-29 00:24 | 12.54693 | -87.07870 | 10991 ft | 165 kts | 108° |
| 2026-04-29 00:24 | 12.54216 | -87.06806 | 10995 ft | 165 kts | 108° |
| 2026-04-29 00:24 | 12.53738 | -87.05738 | 10989 ft | 165 kts | 108° |
| 2026-04-29 00:24 | 12.53261 | -87.04674 | 10995 ft | 165 kts | 108° |
| 2026-04-29 00:25 | 12.52782 | -87.03605 | 10993 ft | 165 kts | 108° |
| 2026-04-29 00:25 | 12.52301 | -87.02532 | 10994 ft | 165 kts | 108° |
| 2026-04-29 00:25 | 12.51828 | -87.01475 | 10992 ft | 165 kts | 108° |
| 2026-04-29 00:25 | 12.51348 | -87.00403 | 10993 ft | 166 kts | 108° |
| 2026-04-29 00:26 | 12.51028 | -86.99690 | 10992 ft | 166 kts | 108° |
| 2026-04-29 00:26 | 12.50546 | -86.98616 | 10997 ft | 166 kts | 108° |
| 2026-04-29 00:26 | 12.49905 | -86.97186 | 10997 ft | 166 kts | 108° |
| 2026-04-29 00:26 | 12.49585 | -86.96472 | 10999 ft | 166 kts | 108° |
| 2026-04-29 00:27 | 12.49101 | -86.95393 | 10992 ft | 166 kts | 108° |
| 2026-04-29 00:27 | 12.48624 | -86.94330 | 10991 ft | 165 kts | 108° |
| 2026-04-29 00:27 | 12.48143 | -86.93258 | 10995 ft | 165 kts | 108° |
| 2026-04-29 00:27 | 12.47662 | -86.92186 | 10990 ft | 165 kts | 108° |
| 2026-04-29 00:28 | 12.47187 | -86.91126 | 10990 ft | 165 kts | 108° |
| 2026-04-29 00:28 | 12.46706 | -86.90054 | 10991 ft | 165 kts | 109° |
| 2026-04-29 00:28 | 12.46232 | -86.88998 | 10988 ft | 165 kts | 109° |
| 2026-04-29 00:28 | 12.45751 | -86.87927 | 10987 ft | 165 kts | 109° |
| 2026-04-29 00:29 | 12.45268 | -86.86851 | 10988 ft | 166 kts | 109° |
| 2026-04-29 00:29 | 12.44793 | -86.85793 | 10989 ft | 166 kts | 109° |
| 2026-04-29 00:29 | 12.44311 | -86.84720 | 10986 ft | 166 kts | 109° |
| 2026-04-29 00:29 | 12.43828 | -86.83645 | 10987 ft | 166 kts | 109° |
| 2026-04-29 00:30 | 12.43344 | -86.82567 | 10983 ft | 166 kts | 109° |
| 2026-04-29 00:30 | 12.42867 | -86.81504 | 10988 ft | 166 kts | 109° |
| 2026-04-29 00:30 | 12.42382 | -86.80426 | 10983 ft | 166 kts | 109° |
| 2026-04-29 00:30 | 12.41897 | -86.79346 | 10982 ft | 166 kts | 109° |
| 2026-04-29 00:31 | 12.41419 | -86.78280 | 10980 ft | 167 kts | 109° |
| 2026-04-29 00:31 | 12.40930 | -86.77194 | 10980 ft | 167 kts | 109° |
| 2026-04-29 00:31 | 12.40445 | -86.76115 | 10987 ft | 167 kts | 109° |
| 2026-04-29 00:31 | 12.39965 | -86.75047 | 10983 ft | 167 kts | 109° |
| 2026-04-29 00:32 | 12.39479 | -86.73967 | 10984 ft | 167 kts | 109° |
| 2026-04-29 00:32 | 12.38991 | -86.72882 | 10983 ft | 167 kts | 109° |
| 2026-04-29 00:32 | 12.38503 | -86.71796 | 10978 ft | 168 kts | 109° |
| 2026-04-29 00:32 | 12.38020 | -86.70721 | 10980 ft | 168 kts | 109° |
| 2026-04-29 00:33 | 12.37528 | -86.69628 | 10978 ft | 168 kts | 109° |
| 2026-04-29 00:33 | 12.37037 | -86.68537 | 10978 ft | 168 kts | 109° |
| 2026-04-29 00:33 | 12.36554 | -86.67463 | 10981 ft | 168 kts | 109° |
| 2026-04-29 00:33 | 12.36062 | -86.66370 | 10975 ft | 169 kts | 109° |
| 2026-04-29 00:34 | 12.35569 | -86.65275 | 10973 ft | 169 kts | 109° |
| 2026-04-29 00:34 | 12.35082 | -86.64193 | 10979 ft | 169 kts | 109° |
| 2026-04-29 00:34 | 12.34589 | -86.63097 | 10980 ft | 169 kts | 110° |
| 2026-04-29 00:34 | 12.34095 | -86.61999 | 10980 ft | 170 kts | 110° |
| 2026-04-29 00:35 | 12.33599 | -86.60899 | 10980 ft | 170 kts | 110° |
| 2026-04-29 00:35 | 12.33111 | -86.59814 | 10982 ft | 170 kts | 110° |
| 2026-04-29 00:35 | 12.32616 | -86.58716 | 10977 ft | 170 kts | 110° |
| 2026-04-29 00:35 | 12.32120 | -86.57616 | 10981 ft | 170 kts | 110° |
| 2026-04-29 00:36 | 12.31626 | -86.56518 | 10978 ft | 169 kts | 110° |
| 2026-04-29 00:36 | 12.31137 | -86.55434 | 10979 ft | 169 kts | 110° |
| 2026-04-29 00:36 | 12.30644 | -86.54340 | 10978 ft | 169 kts | 110° |
| 2026-04-29 00:36 | 12.30150 | -86.53243 | 10984 ft | 169 kts | 110° |
| 2026-04-29 00:37 | 12.29656 | -86.52146 | 10978 ft | 169 kts | 110° |
| 2026-04-29 00:37 | 12.29168 | -86.51065 | 10980 ft | 169 kts | 110° |
| 2026-04-29 00:37 | 12.28675 | -86.49971 | 10980 ft | 169 kts | 110° |
| 2026-04-29 00:37 | 12.28180 | -86.48872 | 10985 ft | 169 kts | 110° |
| 2026-04-29 00:38 | 12.27687 | -86.47780 | 10987 ft | 169 kts | 110° |
| 2026-04-29 00:38 | 12.27195 | -86.46689 | 10990 ft | 170 kts | 110° |
| 2026-04-29 00:38 | 12.26699 | -86.45589 | 10989 ft | 170 kts | 110° |
| 2026-04-29 00:38 | 12.26209 | -86.44503 | 10993 ft | 170 kts | 110° |
| 2026-04-29 00:39 | 12.25712 | -86.43401 | 10990 ft | 170 kts | 110° |
| 2026-04-29 00:39 | 12.25220 | -86.42311 | 10993 ft | 170 kts | 110° |
| 2026-04-29 00:39 | 12.24725 | -86.41214 | 10995 ft | 169 kts | 110° |
| 2026-04-29 00:39 | 12.24231 | -86.40120 | 10999 ft | 169 kts | 110° |
| 2026-04-29 00:40 | 12.23736 | -86.39024 | 10997 ft | 169 kts | 110° |
| 2026-04-29 00:40 | 12.23241 | -86.37928 | 11008 ft | 169 kts | 110° |
| 2026-04-29 00:40 | 12.22753 | -86.36845 | 11007 ft | 170 kts | 110° |
| 2026-04-29 00:40 | 12.22256 | -86.35746 | 11007 ft | 170 kts | 110° |
| 2026-04-29 00:41 | 12.21757 | -86.34641 | 11007 ft | 170 kts | 110° |
| 2026-04-29 00:41 | 12.21268 | -86.33558 | 11011 ft | 170 kts | 110° |
| 2026-04-29 00:41 | 12.20771 | -86.32457 | 11012 ft | 170 kts | 110° |
| 2026-04-29 00:41 | 12.20274 | -86.31357 | 11014 ft | 170 kts | 110° |
| 2026-04-29 00:42 | 12.19779 | -86.30264 | 11017 ft | 170 kts | 110° |
| 2026-04-29 00:42 | 12.19288 | -86.29176 | 11018 ft | 169 kts | 110° |
| 2026-04-29 00:42 | 12.18791 | -86.28077 | 11017 ft | 170 kts | 110° |
| 2026-04-29 00:42 | 12.18299 | -86.26988 | 11016 ft | 170 kts | 110° |
| 2026-04-29 00:43 | 12.17803 | -86.25890 | 11018 ft | 170 kts | 110° |
| 2026-04-29 00:43 | 12.17309 | -86.24799 | 11017 ft | 170 kts | 110° |
| 2026-04-29 00:43 | 12.16813 | -86.23701 | 11018 ft | 170 kts | 110° |
| 2026-04-29 00:43 | 12.16317 | -86.22605 | 11017 ft | 169 kts | 110° |
| 2026-04-29 00:44 | 12.15821 | -86.21509 | 11022 ft | 170 kts | 110° |
| 2026-04-29 00:44 | 12.15330 | -86.20422 | 11019 ft | 170 kts | 110° |
| 2026-04-29 00:44 | 12.14838 | -86.19336 | 11018 ft | 170 kts | 110° |
| 2026-04-29 00:44 | 12.14339 | -86.18233 | 11017 ft | 169 kts | 110° |
| 2026-04-29 00:45 | 12.13620 | -86.17271 | 11010 ft | 176 kts | 139° |
| 2026-04-29 00:45 | 12.12510 | -86.16750 | 11007 ft | 179 kts | 157° |
| 2026-04-29 00:45 | 12.11324 | -86.16328 | 11011 ft | 179 kts | 156° |
| 2026-04-29 00:45 | 12.10169 | -86.15874 | 11011 ft | 179 kts | 154° |
| 2026-04-29 00:46 | 12.09006 | -86.15399 | 11011 ft | 179 kts | 154° |
| 2026-04-29 00:46 | 12.07848 | -86.14925 | 11013 ft | 179 kts | 154° |
| 2026-04-29 00:46 | 12.06689 | -86.14453 | 11013 ft | 179 kts | 154° |
| 2026-04-29 00:46 | 12.05545 | -86.13987 | 11013 ft | 179 kts | 154° |
| 2026-04-29 00:47 | 12.04384 | -86.13515 | 11012 ft | 179 kts | 154° |
| 2026-04-29 00:47 | 12.03227 | -86.13043 | 11014 ft | 179 kts | 154° |
| 2026-04-29 00:47 | 12.02068 | -86.12571 | 11006 ft | 179 kts | 155° |
| 2026-04-29 00:47 | 12.00905 | -86.12098 | 11005 ft | 179 kts | 155° |
| 2026-04-29 00:48 | 11.99737 | -86.11622 | 11005 ft | 179 kts | 155° |
| 2026-04-29 00:48 | 11.98593 | -86.11156 | 11000 ft | 178 kts | 155° |
| 2026-04-29 00:48 | 11.97436 | -86.10686 | 11000 ft | 178 kts | 155° |
| 2026-04-29 00:48 | 11.96286 | -86.10218 | 10997 ft | 178 kts | 155° |
| 2026-04-29 00:49 | 11.95132 | -86.09748 | 10995 ft | 178 kts | 155° |
| 2026-04-29 00:49 | 11.93986 | -86.09282 | 10994 ft | 178 kts | 155° |
| 2026-04-29 00:49 | 11.92845 | -86.08817 | 10994 ft | 177 kts | 155° |
| 2026-04-29 00:49 | 11.91689 | -86.08347 | 10993 ft | 177 kts | 155° |
| 2026-04-29 00:50 | 11.90540 | -86.07879 | 10993 ft | 177 kts | 155° |
| 2026-04-29 00:50 | 11.89399 | -86.07416 | 10991 ft | 177 kts | 155° |
| 2026-04-29 00:50 | 11.88260 | -86.06952 | 10988 ft | 177 kts | 155° |
| 2026-04-29 00:50 | 11.87111 | -86.06485 | 10988 ft | 177 kts | 155° |
| 2026-04-29 00:51 | 11.85972 | -86.06021 | 10987 ft | 177 kts | 155° |
| 2026-04-29 00:51 | 11.84823 | -86.05554 | 10988 ft | 177 kts | 156° |
| 2026-04-29 00:51 | 11.83678 | -86.05089 | 10984 ft | 177 kts | 155° |
| 2026-04-29 00:51 | 11.82542 | -86.04627 | 10984 ft | 176 kts | 155° |
| 2026-04-29 00:52 | 11.81403 | -86.04163 | 10984 ft | 176 kts | 155° |
| 2026-04-29 00:52 | 11.80271 | -86.03704 | 10981 ft | 176 kts | 155° |
| 2026-04-29 00:52 | 11.79124 | -86.03237 | 10982 ft | 175 kts | 155° |
| 2026-04-29 00:52 | 11.77999 | -86.02780 | 10983 ft | 175 kts | 155° |
| 2026-04-29 00:53 | 11.76864 | -86.02319 | 10982 ft | 175 kts | 155° |
| 2026-04-29 00:53 | 11.75739 | -86.01862 | 10984 ft | 175 kts | 155° |
| 2026-04-29 00:53 | 11.74594 | -86.01397 | 10982 ft | 175 kts | 155° |
| 2026-04-29 00:53 | 11.73462 | -86.00937 | 10982 ft | 175 kts | 155° |
| 2026-04-29 00:54 | 11.72333 | -86.00478 | 10985 ft | 176 kts | 155° |
| 2026-04-29 00:54 | 11.71190 | -86.00014 | 10986 ft | 175 kts | 156° |
| 2026-04-29 00:54 | 11.70064 | -85.99556 | 10987 ft | 175 kts | 156° |
| 2026-04-29 00:54 | 11.68924 | -85.99093 | 10984 ft | 175 kts | 156° |
| 2026-04-29 00:55 | 11.67805 | -85.98639 | 10986 ft | 174 kts | 156° |
| 2026-04-29 00:55 | 11.66677 | -85.98181 | 10991 ft | 174 kts | 156° |
| 2026-04-29 00:55 | 11.65556 | -85.97726 | 10986 ft | 174 kts | 156° |
| 2026-04-29 00:55 | 11.64418 | -85.97264 | 10985 ft | 174 kts | 156° |
| 2026-04-29 00:56 | 11.63294 | -85.96808 | 10984 ft | 175 kts | 156° |
| 2026-04-29 00:56 | 11.62173 | -85.96353 | 10985 ft | 175 kts | 155° |
| 2026-04-29 00:56 | 11.61035 | -85.95890 | 10989 ft | 175 kts | 156° |
| 2026-04-29 00:56 | 11.59914 | -85.95436 | 10990 ft | 175 kts | 156° |
| 2026-04-29 00:57 | 11.58773 | -85.94972 | 10990 ft | 175 kts | 156° |
| 2026-04-29 00:57 | 11.57647 | -85.94515 | 10989 ft | 175 kts | 156° |
| 2026-04-29 00:57 | 11.56526 | -85.94060 | 10987 ft | 174 kts | 156° |
| 2026-04-29 00:57 | 11.55388 | -85.93599 | 10989 ft | 174 kts | 156° |
| 2026-04-29 00:58 | 11.54269 | -85.93146 | 10989 ft | 174 kts | 156° |
| 2026-04-29 00:58 | 11.53131 | -85.92683 | 10989 ft | 175 kts | 156° |
| 2026-04-29 00:58 | 11.51997 | -85.92223 | 10992 ft | 175 kts | 156° |
| 2026-04-29 00:58 | 11.50873 | -85.91768 | 10992 ft | 175 kts | 155° |
| 2026-04-29 00:59 | 11.49737 | -85.91307 | 10986 ft | 175 kts | 155° |
| 2026-04-29 00:59 | 11.48616 | -85.90852 | 10993 ft | 175 kts | 156° |
| 2026-04-29 00:59 | 11.47480 | -85.90392 | 10994 ft | 175 kts | 156° |
| 2026-04-29 00:59 | 11.46338 | -85.89929 | 10985 ft | 175 kts | 156° |
| 2026-04-29 01:00 | 11.45217 | -85.89474 | 10989 ft | 175 kts | 156° |
| 2026-04-29 01:00 | 11.44094 | -85.89019 | 10985 ft | 175 kts | 156° |
| 2026-04-29 01:00 | 11.42952 | -85.88556 | 10985 ft | 175 kts | 155° |
| 2026-04-29 01:00 | 11.41826 | -85.88100 | 10989 ft | 175 kts | 155° |
| 2026-04-29 01:01 | 11.40691 | -85.87640 | 10989 ft | 175 kts | 156° |
| 2026-04-29 01:01 | 11.39565 | -85.87184 | 10995 ft | 175 kts | 155° |
| 2026-04-29 01:01 | 11.38428 | -85.86723 | 10995 ft | 175 kts | 155° |
| 2026-04-29 01:01 | 11.37304 | -85.86268 | 10996 ft | 175 kts | 156° |
| 2026-04-29 01:02 | 11.36162 | -85.85805 | 10993 ft | 175 kts | 155° |
| 2026-04-29 01:02 | 11.35035 | -85.85348 | 10995 ft | 175 kts | 156° |
| 2026-04-29 01:02 | 11.33894 | -85.84887 | 10997 ft | 175 kts | 156° |
| 2026-04-29 01:02 | 11.32775 | -85.84433 | 10995 ft | 175 kts | 156° |
| 2026-04-29 01:03 | 11.31634 | -85.83971 | 10997 ft | 175 kts | 155° |
| 2026-04-29 01:03 | 11.30512 | -85.83517 | 10998 ft | 175 kts | 156° |
| 2026-04-29 01:03 | 11.29374 | -85.83056 | 10999 ft | 175 kts | 155° |
| 2026-04-29 01:03 | 11.28245 | -85.82599 | 10997 ft | 176 kts | 155° |
| 2026-04-29 01:04 | 11.27103 | -85.82136 | 11001 ft | 176 kts | 156° |
| 2026-04-29 01:04 | 11.25953 | -85.81670 | 11003 ft | 176 kts | 156° |
| 2026-04-29 01:04 | 11.24820 | -85.81213 | 11007 ft | 176 kts | 155° |
| 2026-04-29 01:04 | 11.23675 | -85.80749 | 11006 ft | 176 kts | 155° |
| 2026-04-29 01:05 | 11.22550 | -85.80294 | 11003 ft | 176 kts | 156° |
| 2026-04-29 01:05 | 11.21407 | -85.79831 | 11005 ft | 175 kts | 156° |
| 2026-04-29 01:05 | 11.20275 | -85.79375 | 11012 ft | 176 kts | 156° |
| 2026-04-29 01:05 | 11.19127 | -85.78919 | 11006 ft | 176 kts | 156° |
| 2026-04-29 01:06 | 11.17991 | -85.78469 | 11005 ft | 176 kts | 156° |
| 2026-04-29 01:06 | 11.16841 | -85.78011 | 11004 ft | 176 kts | 156° |
| 2026-04-29 01:06 | 11.15702 | -85.77558 | 11008 ft | 176 kts | 156° |
| 2026-04-29 01:06 | 11.14569 | -85.77107 | 11006 ft | 176 kts | 156° |
| 2026-04-29 01:07 | 11.13423 | -85.76651 | 11007 ft | 176 kts | 156° |
| 2026-04-29 01:07 | 11.12290 | -85.76201 | 11008 ft | 175 kts | 156° |
| 2026-04-29 01:07 | 11.11145 | -85.75745 | 10961 ft | 178 kts | 156° |
| 2026-04-29 01:07 | 11.09977 | -85.75281 | 10742 ft | 180 kts | 156° |
| 2026-04-29 01:08 | 11.08816 | -85.74820 | 10539 ft | 182 kts | 156° |
| 2026-04-29 01:08 | 11.07631 | -85.74348 | 10338 ft | 183 kts | 156° |
| 2026-04-29 01:08 | 11.06452 | -85.73880 | 10138 ft | 183 kts | 156° |
| 2026-04-29 01:08 | 11.05269 | -85.73407 | 9923 ft | 180 kts | 156° |
| 2026-04-29 01:09 | 11.04109 | -85.72929 | 9709 ft | 178 kts | 155° |
| 2026-04-29 01:09 | 11.02960 | -85.72457 | 9445 ft | 176 kts | 155° |
| 2026-04-29 01:09 | 11.01832 | -85.71995 | 9166 ft | 175 kts | 155° |
| 2026-04-29 01:09 | 11.00715 | -85.71538 | 8893 ft | 174 kts | 155° |
| 2026-04-29 01:10 | 10.99967 | -85.71231 | 8710 ft | 173 kts | 155° |
| 2026-04-29 01:10 | 10.98850 | -85.70773 | 8440 ft | 172 kts | 155° |
| 2026-04-29 01:10 | 10.97736 | -85.70316 | 8173 ft | 172 kts | 155° |
| 2026-04-29 01:10 | 10.96639 | -85.69868 | 7911 ft | 171 kts | 155° |
| 2026-04-29 01:11 | 10.95541 | -85.69417 | 7649 ft | 170 kts | 154° |
| 2026-04-29 01:11 | 10.94437 | -85.68964 | 7393 ft | 171 kts | 154° |
| 2026-04-29 01:11 | 10.93335 | -85.68513 | 7128 ft | 170 kts | 155° |
| 2026-04-29 01:11 | 10.92250 | -85.68070 | 6868 ft | 169 kts | 154° |
| 2026-04-29 01:12 | 10.91155 | -85.67620 | 6621 ft | 167 kts | 154° |
| 2026-04-29 01:12 | 10.90076 | -85.67177 | 6363 ft | 167 kts | 154° |
| 2026-04-29 01:12 | 10.89005 | -85.66738 | 6105 ft | 168 kts | 154° |
| 2026-04-29 01:12 | 10.87909 | -85.66291 | 5835 ft | 168 kts | 154° |
| 2026-04-29 01:13 | 10.86829 | -85.65849 | 5568 ft | 168 kts | 153° |
| 2026-04-29 01:13 | 10.85733 | -85.65400 | 5304 ft | 168 kts | 152° |
| 2026-04-29 01:13 | 10.84651 | -85.64957 | 5043 ft | 168 kts | 152° |
| 2026-04-29 01:13 | 10.83574 | -85.64515 | 4789 ft | 168 kts | 153° |
| 2026-04-29 01:14 | 10.82485 | -85.64070 | 4518 ft | 168 kts | 153° |
| 2026-04-29 01:14 | 10.81391 | -85.63622 | 4256 ft | 172 kts | 153° |
| 2026-04-29 01:14 | 10.80285 | -85.63170 | 4080 ft | 170 kts | 152° |
| 2026-04-29 01:14 | 10.79193 | -85.62726 | 3994 ft | 166 kts | 152° |
| 2026-04-29 01:15 | 10.78144 | -85.62294 | 3994 ft | 162 kts | 152° |
| 2026-04-29 01:15 | 10.77097 | -85.61864 | 3996 ft | 164 kts | 152° |
| 2026-04-29 01:15 | 10.76030 | -85.61427 | 3995 ft | 165 kts | 152° |
| 2026-04-29 01:15 | 10.74956 | -85.60987 | 3997 ft | 168 kts | 152° |
| 2026-04-29 01:16 | 10.73860 | -85.60540 | 4001 ft | 169 kts | 152° |
| 2026-04-29 01:16 | 10.72777 | -85.60097 | 4003 ft | 168 kts | 153° |
| 2026-04-29 01:16 | 10.71702 | -85.59658 | 4005 ft | 167 kts | 152° |
| 2026-04-29 01:16 | 10.70624 | -85.59216 | 4003 ft | 169 kts | 152° |
| 2026-04-29 01:17 | 10.69521 | -85.58765 | 4001 ft | 170 kts | 152° |
| 2026-04-29 01:17 | 10.68434 | -85.58321 | 4002 ft | 169 kts | 153° |
| 2026-04-29 01:17 | 10.67345 | -85.57876 | 4002 ft | 168 kts | 152° |
| 2026-04-29 01:17 | 10.66255 | -85.57430 | 4004 ft | 169 kts | 152° |
| 2026-04-29 01:18 | 10.65163 | -85.56983 | 4007 ft | 171 kts | 153° |
| 2026-04-29 01:18 | 10.62952 | -85.56081 | 3995 ft | 170 kts | 153° |
| 2026-04-29 01:18 | 10.61856 | -85.55632 | 3997 ft | 168 kts | 153° |
| 2026-04-29 01:19 | 10.60710 | -85.55426 | 3989 ft | 175 kts | 180° |
| 2026-04-29 01:19 | 10.59588 | -85.55909 | 3985 ft | 182 kts | 214° |
| 2026-04-29 01:19 | 10.58873 | -85.56979 | 3983 ft | 185 kts | 251° |
| 2026-04-29 01:19 | 10.58812 | -85.58260 | 3991 ft | 184 kts | 281° |
| 2026-04-29 01:20 | 10.58914 | -85.59563 | 3984 ft | 185 kts | 268° |
| 2026-04-29 01:20 | 10.58791 | -85.60855 | 3992 ft | 185 kts | 263° |
| 2026-04-29 01:20 | 10.58636 | -85.62160 | 3996 ft | 187 kts | 264° |
| 2026-04-29 01:20 | 10.58496 | -85.63469 | 3994 ft | 185 kts | 264° |
| 2026-04-29 01:21 | 10.58362 | -85.64752 | 3992 ft | 184 kts | 264° |
| 2026-04-29 01:21 | 10.58227 | -85.66056 | 3992 ft | 186 kts | 264° |
| 2026-04-29 01:21 | 10.58090 | -85.67372 | 3964 ft | 188 kts | 265° |
| 2026-04-29 01:21 | 10.57953 | -85.68681 | 3874 ft | 190 kts | 264° |
| 2026-04-29 01:22 | 10.57812 | -85.70037 | 3782 ft | 194 kts | 265° |
| 2026-04-29 01:22 | 10.57669 | -85.71411 | 3691 ft | 197 kts | 264° |
| 2026-04-29 01:22 | 10.57523 | -85.72808 | 3586 ft | 199 kts | 264° |
| 2026-04-29 01:22 | 10.57257 | -85.74165 | 3411 ft | 197 kts | 246° |
| 2026-04-29 01:23 | 10.56440 | -85.75227 | 3229 ft | 187 kts | 212° |
| 2026-04-29 01:23 | 10.55270 | -85.75684 | 3054 ft | 176 kts | 181° |
| 2026-04-29 01:23 | 10.54114 | -85.75563 | 2990 ft | 160 kts | 155° |
| 2026-04-29 01:23 | 10.53199 | -85.75028 | 2988 ft | 144 kts | 133° |
| 2026-04-29 01:24 | 10.52612 | -85.74266 | 2994 ft | 132 kts | 113° |
| 2026-04-29 01:24 | 10.52343 | -85.73424 | 2991 ft | 123 kts | 97° |
| 2026-04-29 01:24 | 10.52356 | -85.72564 | 2989 ft | 120 kts | 80° |
| 2026-04-29 01:24 | 10.52608 | -85.71765 | 2999 ft | 116 kts | 70° |
| 2026-04-29 01:25 | 10.52897 | -85.71018 | 2985 ft | 114 kts | 67° |
| 2026-04-29 01:25 | 10.53373 | -85.70380 | 2987 ft | 110 kts | 54° |
| 2026-04-29 01:25 | 10.53760 | -85.69760 | 2990 ft | 99 kts | 69° |
| 2026-04-29 01:25 | 10.54039 | -85.69125 | 2913 ft | 100 kts | 70° |
| 2026-04-29 01:26 | 10.54306 | -85.68460 | 2786 ft | 102 kts | 70° |
| 2026-04-29 01:26 | 10.54553 | -85.67807 | 2658 ft | 91 kts | 70° |
| 2026-04-29 01:26 | 10.54779 | -85.67212 | 2537 ft | 89 kts | 72° |
| 2026-04-29 01:26 | 10.54988 | -85.66646 | 2425 ft | 85 kts | 74° |
| 2026-04-29 01:27 | 10.55189 | -85.66081 | 2324 ft | 86 kts | 75° |
| 2026-04-29 01:27 | 10.55385 | -85.65531 | 2220 ft | 81 kts | 72° |
| 2026-04-29 01:27 | 10.55590 | -85.64965 | 2121 ft | 89 kts | 72° |
| 2026-04-29 01:27 | 10.55805 | -85.64356 | 2004 ft | 93 kts | 73° |
| 2026-04-29 01:28 | 10.56024 | -85.63744 | 1883 ft | 93 kts | 73° |
| 2026-04-29 01:28 | 10.56245 | -85.63129 | 1769 ft | 91 kts | 73° |
| 2026-04-29 01:28 | 10.56461 | -85.62522 | 1645 ft | 93 kts | 72° |
| 2026-04-29 01:28 | 10.56682 | -85.61898 | 1521 ft | 93 kts | 73° |
| 2026-04-29 01:29 | 10.56905 | -85.61276 | 1402 ft | 95 kts | 71° |
| 2026-04-29 01:29 | 10.57130 | -85.60644 | 1289 ft | 95 kts | 70° |
| 2026-04-29 01:29 | 10.57347 | -85.60027 | 1166 ft | 89 kts | 70° |
| 2026-04-29 01:29 | 10.57551 | -85.59461 | 1064 ft | 83 kts | 70° |
| 2026-04-29 01:30 | 10.57742 | -85.58929 | 970 ft | 74 kts | 71° |
| 2026-04-29 01:30 | 10.57906 | -85.58469 | 884 ft | 67 kts | 69° |
| 2026-04-29 01:30 | 10.58072 | -85.57998 | 795 ft | 79 kts | 70° |
| 2026-04-29 01:30 | 10.58273 | -85.57442 | 689 ft | 85 kts | 72° |
| 2026-04-29 01:31 | 10.58460 | -85.56899 | 578 ft | 79 kts | 71° |
| 2026-04-29 01:31 | 10.58648 | -85.56376 | 472 ft | 77 kts | 71° |
| 2026-04-29 01:31 | 10.58825 | -85.55885 | 366 ft | 72 kts | 70° |
| 2026-04-29 01:31 | 10.58986 | -85.55446 | 267 ft | 59 kts | 70° |
| 2026-04-29 01:32 | 10.59097 | -85.55114 | 259 ft | 42 kts | 70° |
| 2026-04-29 01:32 | 10.59187 | -85.54870 | 259 ft | 33 kts | 69° |
| 2026-04-29 01:32 | 10.59262 | -85.54667 | 260 ft | 29 kts | 69° |
| 2026-04-29 01:32 | 10.59332 | -85.54486 | 262 ft | 27 kts | 68° |
| 2026-04-29 01:33 | 10.59393 | -85.54316 | 264 ft | 25 kts | 69° |
| 2026-04-29 01:33 | 10.59451 | -85.54157 | 267 ft | 23 kts | 70° |
| 2026-04-29 01:33 | 10.59503 | -85.54010 | 268 ft | 22 kts | 71° |
| 2026-04-29 01:33 | 10.59548 | -85.53871 | 270 ft | 18 kts | 71° |
| 2026-04-29 01:34 | 10.59639 | -85.53840 | 270 ft | 15 kts | 347° |
| 2026-04-29 01:34 | 10.59734 | -85.53871 | 270 ft | 14 kts | 335° |
| 2026-04-29 01:34 | 10.59820 | -85.53870 | 271 ft | 12 kts | 347° |
| 2026-04-29 01:34 | 10.59891 | -85.53887 | 271 ft | 3 kts | 337° |